<?xml version="1.0" encoding="UTF-8" standalone="no" ?>
<gpx xmlns="http://www.topografix.com/GPX/1/1" xmlns:xsi="http://www.w3.org/2001/XMLSchema-instance" xsi:schemaLocation="http://www.topografix.com/GPX/1/1 http://www.topografix.com/GPX/1/1/gpx.xsd" version="1.1" creator="VisuGPX - https://www.visugpx.com">
  <metadata>
    <name>Randonnée autour du plateau des 1000 étangs</name>
  </metadata>
  <trk>
    <name><![CDATA[Randonnée du 10/10/2021 à 09:58]]></name>
    <trkseg>
      <trkpt lat="47.83828" lon="6.66706">
        <ele>643</ele>
        <time>2021-10-10T09:58:37+02:00</time>
      </trkpt>
      <trkpt lat="47.83846" lon="6.66727">
        <ele>643</ele>
        <time>2021-10-10T09:59:11+02:00</time>
      </trkpt>
      <trkpt lat="47.83868" lon="6.66737">
        <ele>643</ele>
        <time>2021-10-10T09:59:39+02:00</time>
      </trkpt>
      <trkpt lat="47.83888" lon="6.66754">
        <ele>643</ele>
        <time>2021-10-10T09:59:56+02:00</time>
      </trkpt>
      <trkpt lat="47.83904" lon="6.6678">
        <ele>643</ele>
        <time>2021-10-10T10:00:15+02:00</time>
      </trkpt>
      <trkpt lat="47.83914" lon="6.66811">
        <ele>642</ele>
        <time>2021-10-10T10:00:33+02:00</time>
      </trkpt>
      <trkpt lat="47.83927" lon="6.66839">
        <ele>642</ele>
        <time>2021-10-10T10:00:49+02:00</time>
      </trkpt>
      <trkpt lat="47.8394" lon="6.66867">
        <ele>642</ele>
        <time>2021-10-10T10:01:06+02:00</time>
      </trkpt>
      <trkpt lat="47.83956" lon="6.66892">
        <ele>642</ele>
        <time>2021-10-10T10:01:23+02:00</time>
      </trkpt>
      <trkpt lat="47.83968" lon="6.6692">
        <ele>642</ele>
        <time>2021-10-10T10:01:43+02:00</time>
      </trkpt>
      <trkpt lat="47.83982" lon="6.66946">
        <ele>642</ele>
        <time>2021-10-10T10:02:02+02:00</time>
      </trkpt>
      <trkpt lat="47.83997" lon="6.66972">
        <ele>641</ele>
        <time>2021-10-10T10:02:20+02:00</time>
      </trkpt>
      <trkpt lat="47.84009" lon="6.67002">
        <ele>641</ele>
        <time>2021-10-10T10:02:39+02:00</time>
      </trkpt>
      <trkpt lat="47.83994" lon="6.67029">
        <ele>639</ele>
        <time>2021-10-10T10:03:33+02:00</time>
      </trkpt>
      <trkpt lat="47.83983" lon="6.67059">
        <ele>639</ele>
        <time>2021-10-10T10:03:49+02:00</time>
      </trkpt>
      <trkpt lat="47.83994" lon="6.67091">
        <ele>639</ele>
        <time>2021-10-10T10:04:05+02:00</time>
      </trkpt>
      <trkpt lat="47.83994" lon="6.67126">
        <ele>638</ele>
        <time>2021-10-10T10:04:23+02:00</time>
      </trkpt>
      <trkpt lat="47.83991" lon="6.67159">
        <ele>636</ele>
        <time>2021-10-10T10:04:41+02:00</time>
      </trkpt>
      <trkpt lat="47.8398" lon="6.67189">
        <ele>634</ele>
        <time>2021-10-10T10:04:58+02:00</time>
      </trkpt>
      <trkpt lat="47.83976" lon="6.67223">
        <ele>633</ele>
        <time>2021-10-10T10:05:16+02:00</time>
      </trkpt>
      <trkpt lat="47.83975" lon="6.67256">
        <ele>631</ele>
        <time>2021-10-10T10:05:34+02:00</time>
      </trkpt>
      <trkpt lat="47.8397" lon="6.67289">
        <ele>631</ele>
        <time>2021-10-10T10:05:52+02:00</time>
      </trkpt>
      <trkpt lat="47.83967" lon="6.67323">
        <ele>631</ele>
        <time>2021-10-10T10:06:08+02:00</time>
      </trkpt>
      <trkpt lat="47.83959" lon="6.67354">
        <ele>632</ele>
        <time>2021-10-10T10:06:24+02:00</time>
      </trkpt>
      <trkpt lat="47.83955" lon="6.67388">
        <ele>631</ele>
        <time>2021-10-10T10:06:41+02:00</time>
      </trkpt>
      <trkpt lat="47.83957" lon="6.67421">
        <ele>630</ele>
        <time>2021-10-10T10:06:57+02:00</time>
      </trkpt>
      <trkpt lat="47.83977" lon="6.67437">
        <ele>630</ele>
        <time>2021-10-10T10:08:07+02:00</time>
      </trkpt>
      <trkpt lat="47.83999" lon="6.67444">
        <ele>631</ele>
        <time>2021-10-10T10:08:34+02:00</time>
      </trkpt>
      <trkpt lat="47.84019" lon="6.67459">
        <ele>630</ele>
        <time>2021-10-10T10:08:51+02:00</time>
      </trkpt>
      <trkpt lat="47.84038" lon="6.6748">
        <ele>629</ele>
        <time>2021-10-10T10:09:07+02:00</time>
      </trkpt>
      <trkpt lat="47.84055" lon="6.67504">
        <ele>629</ele>
        <time>2021-10-10T10:09:25+02:00</time>
      </trkpt>
      <trkpt lat="47.84072" lon="6.67527">
        <ele>628</ele>
        <time>2021-10-10T10:09:41+02:00</time>
      </trkpt>
      <trkpt lat="47.84086" lon="6.67557">
        <ele>629</ele>
        <time>2021-10-10T10:10:02+02:00</time>
      </trkpt>
      <trkpt lat="47.8409" lon="6.67591">
        <ele>628</ele>
        <time>2021-10-10T10:10:19+02:00</time>
      </trkpt>
      <trkpt lat="47.84088" lon="6.67625">
        <ele>626</ele>
        <time>2021-10-10T10:10:36+02:00</time>
      </trkpt>
      <trkpt lat="47.84087" lon="6.6766">
        <ele>625</ele>
        <time>2021-10-10T10:10:53+02:00</time>
      </trkpt>
      <trkpt lat="47.84097" lon="6.67692">
        <ele>625</ele>
        <time>2021-10-10T10:11:12+02:00</time>
      </trkpt>
      <trkpt lat="47.84104" lon="6.67724">
        <ele>626</ele>
        <time>2021-10-10T10:11:31+02:00</time>
      </trkpt>
      <trkpt lat="47.84096" lon="6.67755">
        <ele>627</ele>
        <time>2021-10-10T10:11:48+02:00</time>
      </trkpt>
      <trkpt lat="47.84087" lon="6.67786">
        <ele>627</ele>
        <time>2021-10-10T10:12:09+02:00</time>
      </trkpt>
      <trkpt lat="47.84069" lon="6.67807">
        <ele>625</ele>
        <time>2021-10-10T10:12:27+02:00</time>
      </trkpt>
      <trkpt lat="47.84052" lon="6.67831">
        <ele>623</ele>
        <time>2021-10-10T10:12:44+02:00</time>
      </trkpt>
      <trkpt lat="47.84048" lon="6.67865">
        <ele>624</ele>
        <time>2021-10-10T10:13:02+02:00</time>
      </trkpt>
      <trkpt lat="47.84047" lon="6.679">
        <ele>625</ele>
        <time>2021-10-10T10:13:22+02:00</time>
      </trkpt>
      <trkpt lat="47.84051" lon="6.67935">
        <ele>625</ele>
        <time>2021-10-10T10:13:39+02:00</time>
      </trkpt>
      <trkpt lat="47.84052" lon="6.67968">
        <ele>625</ele>
        <time>2021-10-10T10:13:56+02:00</time>
      </trkpt>
      <trkpt lat="47.84046" lon="6.68">
        <ele>623</ele>
        <time>2021-10-10T10:14:25+02:00</time>
      </trkpt>
      <trkpt lat="47.84054" lon="6.67966">
        <ele>625</ele>
        <time>2021-10-10T10:14:54+02:00</time>
      </trkpt>
      <trkpt lat="47.8405" lon="6.67932">
        <ele>625</ele>
        <time>2021-10-10T10:15:10+02:00</time>
      </trkpt>
      <trkpt lat="47.84043" lon="6.67899">
        <ele>624</ele>
        <time>2021-10-10T10:15:25+02:00</time>
      </trkpt>
      <trkpt lat="47.84043" lon="6.67866">
        <ele>623</ele>
        <time>2021-10-10T10:15:45+02:00</time>
      </trkpt>
      <trkpt lat="47.84048" lon="6.67833">
        <ele>623</ele>
        <time>2021-10-10T10:16:09+02:00</time>
      </trkpt>
      <trkpt lat="47.84041" lon="6.67865">
        <ele>623</ele>
        <time>2021-10-10T10:16:58+02:00</time>
      </trkpt>
      <trkpt lat="47.84045" lon="6.67899">
        <ele>624</ele>
        <time>2021-10-10T10:17:12+02:00</time>
      </trkpt>
      <trkpt lat="47.84049" lon="6.67932">
        <ele>625</ele>
        <time>2021-10-10T10:17:28+02:00</time>
      </trkpt>
      <trkpt lat="47.84052" lon="6.67966">
        <ele>625</ele>
        <time>2021-10-10T10:17:49+02:00</time>
      </trkpt>
      <trkpt lat="47.84046" lon="6.67998">
        <ele>623</ele>
        <time>2021-10-10T10:18:17+02:00</time>
      </trkpt>
      <trkpt lat="47.84053" lon="6.68031">
        <ele>620</ele>
        <time>2021-10-10T10:18:38+02:00</time>
      </trkpt>
      <trkpt lat="47.84066" lon="6.6806">
        <ele>618</ele>
        <time>2021-10-10T10:19:01+02:00</time>
      </trkpt>
      <trkpt lat="47.84085" lon="6.68079">
        <ele>617</ele>
        <time>2021-10-10T10:19:16+02:00</time>
      </trkpt>
      <trkpt lat="47.84104" lon="6.68102">
        <ele>616</ele>
        <time>2021-10-10T10:19:31+02:00</time>
      </trkpt>
      <trkpt lat="47.84116" lon="6.6813">
        <ele>616</ele>
        <time>2021-10-10T10:19:53+02:00</time>
      </trkpt>
      <trkpt lat="47.84094" lon="6.68136">
        <ele>614</ele>
        <time>2021-10-10T10:20:18+02:00</time>
      </trkpt>
      <trkpt lat="47.84075" lon="6.68156">
        <ele>613</ele>
        <time>2021-10-10T10:20:38+02:00</time>
      </trkpt>
      <trkpt lat="47.84058" lon="6.68179">
        <ele>615</ele>
        <time>2021-10-10T10:20:55+02:00</time>
      </trkpt>
      <trkpt lat="47.84035" lon="6.68186">
        <ele>613</ele>
        <time>2021-10-10T10:21:10+02:00</time>
      </trkpt>
      <trkpt lat="47.84012" lon="6.68193">
        <ele>612</ele>
        <time>2021-10-10T10:21:26+02:00</time>
      </trkpt>
      <trkpt lat="47.83989" lon="6.68206">
        <ele>610</ele>
        <time>2021-10-10T10:21:43+02:00</time>
      </trkpt>
      <trkpt lat="47.83972" lon="6.68228">
        <ele>609</ele>
        <time>2021-10-10T10:21:58+02:00</time>
      </trkpt>
      <trkpt lat="47.83957" lon="6.68255">
        <ele>609</ele>
        <time>2021-10-10T10:22:16+02:00</time>
      </trkpt>
      <trkpt lat="47.8395" lon="6.68288">
        <ele>611</ele>
        <time>2021-10-10T10:22:34+02:00</time>
      </trkpt>
      <trkpt lat="47.83944" lon="6.68321">
        <ele>612</ele>
        <time>2021-10-10T10:22:56+02:00</time>
      </trkpt>
      <trkpt lat="47.83938" lon="6.68355">
        <ele>615</ele>
        <time>2021-10-10T10:23:15+02:00</time>
      </trkpt>
      <trkpt lat="47.83931" lon="6.68388">
        <ele>616</ele>
        <time>2021-10-10T10:23:34+02:00</time>
      </trkpt>
      <trkpt lat="47.83924" lon="6.68422">
        <ele>616</ele>
        <time>2021-10-10T10:23:53+02:00</time>
      </trkpt>
      <trkpt lat="47.83911" lon="6.68451">
        <ele>615</ele>
        <time>2021-10-10T10:24:11+02:00</time>
      </trkpt>
      <trkpt lat="47.83894" lon="6.68474">
        <ele>613</ele>
        <time>2021-10-10T10:24:32+02:00</time>
      </trkpt>
      <trkpt lat="47.83872" lon="6.68462">
        <ele>608</ele>
        <time>2021-10-10T10:24:58+02:00</time>
      </trkpt>
      <trkpt lat="47.83859" lon="6.68434">
        <ele>603</ele>
        <time>2021-10-10T10:25:33+02:00</time>
      </trkpt>
      <trkpt lat="47.83855" lon="6.68468">
        <ele>605</ele>
        <time>2021-10-10T10:26:27+02:00</time>
      </trkpt>
      <trkpt lat="47.83839" lon="6.68491">
        <ele>605</ele>
        <time>2021-10-10T10:26:45+02:00</time>
      </trkpt>
      <trkpt lat="47.83821" lon="6.68514">
        <ele>606</ele>
        <time>2021-10-10T10:27:09+02:00</time>
      </trkpt>
      <trkpt lat="47.8382" lon="6.68548">
        <ele>609</ele>
        <time>2021-10-10T10:27:28+02:00</time>
      </trkpt>
      <trkpt lat="47.8382" lon="6.68584">
        <ele>611</ele>
        <time>2021-10-10T10:27:58+02:00</time>
      </trkpt>
      <trkpt lat="47.83818" lon="6.68618">
        <ele>607</ele>
        <time>2021-10-10T10:28:20+02:00</time>
      </trkpt>
      <trkpt lat="47.83813" lon="6.68651">
        <ele>601</ele>
        <time>2021-10-10T10:28:41+02:00</time>
      </trkpt>
      <trkpt lat="47.83817" lon="6.68685">
        <ele>597</ele>
        <time>2021-10-10T10:29:09+02:00</time>
      </trkpt>
      <trkpt lat="47.83824" lon="6.68718">
        <ele>593</ele>
        <time>2021-10-10T10:29:41+02:00</time>
      </trkpt>
      <trkpt lat="47.83837" lon="6.68747">
        <ele>594</ele>
        <time>2021-10-10T10:30:08+02:00</time>
      </trkpt>
      <trkpt lat="47.83852" lon="6.68775">
        <ele>595</ele>
        <time>2021-10-10T10:30:34+02:00</time>
      </trkpt>
      <trkpt lat="47.83864" lon="6.68803">
        <ele>597</ele>
        <time>2021-10-10T10:30:59+02:00</time>
      </trkpt>
      <trkpt lat="47.83883" lon="6.68822">
        <ele>599</ele>
        <time>2021-10-10T10:31:24+02:00</time>
      </trkpt>
      <trkpt lat="47.83903" lon="6.68838">
        <ele>602</ele>
        <time>2021-10-10T10:31:59+02:00</time>
      </trkpt>
      <trkpt lat="47.83922" lon="6.68856">
        <ele>603</ele>
        <time>2021-10-10T10:32:18+02:00</time>
      </trkpt>
      <trkpt lat="47.83946" lon="6.6885">
        <ele>608</ele>
        <time>2021-10-10T10:32:35+02:00</time>
      </trkpt>
      <trkpt lat="47.83965" lon="6.68833">
        <ele>612</ele>
        <time>2021-10-10T10:32:50+02:00</time>
      </trkpt>
      <trkpt lat="47.83983" lon="6.68812">
        <ele>616</ele>
        <time>2021-10-10T10:33:08+02:00</time>
      </trkpt>
      <trkpt lat="47.84006" lon="6.68803">
        <ele>613</ele>
        <time>2021-10-10T10:33:22+02:00</time>
      </trkpt>
      <trkpt lat="47.84022" lon="6.68779">
        <ele>613</ele>
        <time>2021-10-10T10:33:37+02:00</time>
      </trkpt>
      <trkpt lat="47.84038" lon="6.68755">
        <ele>613</ele>
        <time>2021-10-10T10:33:58+02:00</time>
      </trkpt>
      <trkpt lat="47.84054" lon="6.68731">
        <ele>613</ele>
        <time>2021-10-10T10:34:24+02:00</time>
      </trkpt>
      <trkpt lat="47.84067" lon="6.68704">
        <ele>615</ele>
        <time>2021-10-10T10:34:40+02:00</time>
      </trkpt>
      <trkpt lat="47.84072" lon="6.68671">
        <ele>620</ele>
        <time>2021-10-10T10:35:10+02:00</time>
      </trkpt>
      <trkpt lat="47.84089" lon="6.68648">
        <ele>622</ele>
        <time>2021-10-10T10:35:31+02:00</time>
      </trkpt>
      <trkpt lat="47.84112" lon="6.68659">
        <ele>619</ele>
        <time>2021-10-10T10:35:46+02:00</time>
      </trkpt>
      <trkpt lat="47.84135" lon="6.68669">
        <ele>618</ele>
        <time>2021-10-10T10:36:05+02:00</time>
      </trkpt>
      <trkpt lat="47.84157" lon="6.68679">
        <ele>618</ele>
        <time>2021-10-10T10:36:24+02:00</time>
      </trkpt>
      <trkpt lat="47.84179" lon="6.68673">
        <ele>620</ele>
        <time>2021-10-10T10:36:47+02:00</time>
      </trkpt>
      <trkpt lat="47.84192" lon="6.68645">
        <ele>626</ele>
        <time>2021-10-10T10:37:10+02:00</time>
      </trkpt>
      <trkpt lat="47.84204" lon="6.68616">
        <ele>630</ele>
        <time>2021-10-10T10:37:28+02:00</time>
      </trkpt>
      <trkpt lat="47.84219" lon="6.6859">
        <ele>634</ele>
        <time>2021-10-10T10:37:50+02:00</time>
      </trkpt>
      <trkpt lat="47.84233" lon="6.68581">
        <ele>636</ele>
        <time>2021-10-10T10:38:45+02:00</time>
      </trkpt>
      <trkpt lat="47.84233" lon="6.68582">
        <ele>636</ele>
        <time>2021-10-10T10:38:45+02:00</time>
      </trkpt>
      <trkpt lat="47.84255" lon="6.68573">
        <ele>637</ele>
        <time>2021-10-10T10:39:12+02:00</time>
      </trkpt>
      <trkpt lat="47.84278" lon="6.68575">
        <ele>639</ele>
        <time>2021-10-10T10:39:34+02:00</time>
      </trkpt>
      <trkpt lat="47.84299" lon="6.68588">
        <ele>641</ele>
        <time>2021-10-10T10:39:52+02:00</time>
      </trkpt>
      <trkpt lat="47.84312" lon="6.68617">
        <ele>641</ele>
        <time>2021-10-10T10:40:17+02:00</time>
      </trkpt>
      <trkpt lat="47.84333" lon="6.68636">
        <ele>642</ele>
        <time>2021-10-10T10:40:49+02:00</time>
      </trkpt>
      <trkpt lat="47.8435" lon="6.68659">
        <ele>643</ele>
        <time>2021-10-10T10:41:07+02:00</time>
      </trkpt>
      <trkpt lat="47.84373" lon="6.6866">
        <ele>647</ele>
        <time>2021-10-10T10:41:23+02:00</time>
      </trkpt>
      <trkpt lat="47.84393" lon="6.68677">
        <ele>648</ele>
        <time>2021-10-10T10:41:42+02:00</time>
      </trkpt>
      <trkpt lat="47.84415" lon="6.6868">
        <ele>651</ele>
        <time>2021-10-10T10:42:03+02:00</time>
      </trkpt>
      <trkpt lat="47.84438" lon="6.68684">
        <ele>653</ele>
        <time>2021-10-10T10:42:25+02:00</time>
      </trkpt>
      <trkpt lat="47.8446" lon="6.68688">
        <ele>656</ele>
        <time>2021-10-10T10:42:39+02:00</time>
      </trkpt>
      <trkpt lat="47.84483" lon="6.68687">
        <ele>659</ele>
        <time>2021-10-10T10:42:57+02:00</time>
      </trkpt>
      <trkpt lat="47.84504" lon="6.68674">
        <ele>661</ele>
        <time>2021-10-10T10:43:15+02:00</time>
      </trkpt>
      <trkpt lat="47.84526" lon="6.68664">
        <ele>662</ele>
        <time>2021-10-10T10:43:30+02:00</time>
      </trkpt>
      <trkpt lat="47.8455" lon="6.6866">
        <ele>662</ele>
        <time>2021-10-10T10:43:49+02:00</time>
      </trkpt>
      <trkpt lat="47.8457" lon="6.68645">
        <ele>661</ele>
        <time>2021-10-10T10:44:04+02:00</time>
      </trkpt>
      <trkpt lat="47.84588" lon="6.68626">
        <ele>661</ele>
        <time>2021-10-10T10:44:22+02:00</time>
      </trkpt>
      <trkpt lat="47.84612" lon="6.68632">
        <ele>661</ele>
        <time>2021-10-10T10:44:42+02:00</time>
      </trkpt>
      <trkpt lat="47.84635" lon="6.6863">
        <ele>660</ele>
        <time>2021-10-10T10:44:59+02:00</time>
      </trkpt>
      <trkpt lat="47.84658" lon="6.68631">
        <ele>660</ele>
        <time>2021-10-10T10:45:17+02:00</time>
      </trkpt>
      <trkpt lat="47.84681" lon="6.68633">
        <ele>660</ele>
        <time>2021-10-10T10:45:34+02:00</time>
      </trkpt>
      <trkpt lat="47.84704" lon="6.68628">
        <ele>660</ele>
        <time>2021-10-10T10:45:52+02:00</time>
      </trkpt>
      <trkpt lat="47.84726" lon="6.68619">
        <ele>660</ele>
        <time>2021-10-10T10:46:08+02:00</time>
      </trkpt>
      <trkpt lat="47.84746" lon="6.68604">
        <ele>660</ele>
        <time>2021-10-10T10:46:27+02:00</time>
      </trkpt>
      <trkpt lat="47.84767" lon="6.68591">
        <ele>661</ele>
        <time>2021-10-10T10:46:45+02:00</time>
      </trkpt>
      <trkpt lat="47.84789" lon="6.68581">
        <ele>661</ele>
        <time>2021-10-10T10:47:19+02:00</time>
      </trkpt>
      <trkpt lat="47.84812" lon="6.68583">
        <ele>661</ele>
        <time>2021-10-10T10:47:43+02:00</time>
      </trkpt>
      <trkpt lat="47.84828" lon="6.68608">
        <ele>661</ele>
        <time>2021-10-10T10:48:02+02:00</time>
      </trkpt>
      <trkpt lat="47.84839" lon="6.68639">
        <ele>661</ele>
        <time>2021-10-10T10:48:38+02:00</time>
      </trkpt>
      <trkpt lat="47.8486" lon="6.68652">
        <ele>662</ele>
        <time>2021-10-10T10:48:53+02:00</time>
      </trkpt>
      <trkpt lat="47.84883" lon="6.68653">
        <ele>662</ele>
        <time>2021-10-10T10:49:12+02:00</time>
      </trkpt>
      <trkpt lat="47.84906" lon="6.68644">
        <ele>662</ele>
        <time>2021-10-10T10:49:33+02:00</time>
      </trkpt>
      <trkpt lat="47.84929" lon="6.6865">
        <ele>663</ele>
        <time>2021-10-10T10:49:52+02:00</time>
      </trkpt>
      <trkpt lat="47.8495" lon="6.68664">
        <ele>663</ele>
        <time>2021-10-10T10:50:18+02:00</time>
      </trkpt>
      <trkpt lat="47.84969" lon="6.68683">
        <ele>663</ele>
        <time>2021-10-10T10:50:41+02:00</time>
      </trkpt>
      <trkpt lat="47.84989" lon="6.68699">
        <ele>664</ele>
        <time>2021-10-10T10:50:52+02:00</time>
      </trkpt>
      <trkpt lat="47.85011" lon="6.68713">
        <ele>666</ele>
        <time>2021-10-10T10:51:15+02:00</time>
      </trkpt>
      <trkpt lat="47.85034" lon="6.68709">
        <ele>668</ele>
        <time>2021-10-10T10:52:29+02:00</time>
      </trkpt>
      <trkpt lat="47.85055" lon="6.68718">
        <ele>669</ele>
        <time>2021-10-10T10:52:44+02:00</time>
      </trkpt>
      <trkpt lat="47.85076" lon="6.68731">
        <ele>670</ele>
        <time>2021-10-10T10:53:04+02:00</time>
      </trkpt>
      <trkpt lat="47.85097" lon="6.68747">
        <ele>671</ele>
        <time>2021-10-10T10:53:23+02:00</time>
      </trkpt>
      <trkpt lat="47.85114" lon="6.6877">
        <ele>673</ele>
        <time>2021-10-10T10:53:44+02:00</time>
      </trkpt>
      <trkpt lat="47.85112" lon="6.68804">
        <ele>673</ele>
        <time>2021-10-10T10:54:01+02:00</time>
      </trkpt>
      <trkpt lat="47.85115" lon="6.68838">
        <ele>673</ele>
        <time>2021-10-10T10:54:23+02:00</time>
      </trkpt>
      <trkpt lat="47.85138" lon="6.68846">
        <ele>676</ele>
        <time>2021-10-10T10:54:59+02:00</time>
      </trkpt>
      <trkpt lat="47.85161" lon="6.68842">
        <ele>678</ele>
        <time>2021-10-10T10:55:12+02:00</time>
      </trkpt>
      <trkpt lat="47.85183" lon="6.68843">
        <ele>680</ele>
        <time>2021-10-10T10:55:28+02:00</time>
      </trkpt>
      <trkpt lat="47.85207" lon="6.68841">
        <ele>681</ele>
        <time>2021-10-10T10:55:47+02:00</time>
      </trkpt>
      <trkpt lat="47.8523" lon="6.68838">
        <ele>683</ele>
        <time>2021-10-10T10:56:04+02:00</time>
      </trkpt>
      <trkpt lat="47.8525" lon="6.68858">
        <ele>684</ele>
        <time>2021-10-10T10:56:22+02:00</time>
      </trkpt>
      <trkpt lat="47.85269" lon="6.68874">
        <ele>684</ele>
        <time>2021-10-10T10:56:39+02:00</time>
      </trkpt>
      <trkpt lat="47.85292" lon="6.68882">
        <ele>683</ele>
        <time>2021-10-10T10:56:56+02:00</time>
      </trkpt>
      <trkpt lat="47.85314" lon="6.68887">
        <ele>682</ele>
        <time>2021-10-10T10:57:15+02:00</time>
      </trkpt>
      <trkpt lat="47.85337" lon="6.68897">
        <ele>682</ele>
        <time>2021-10-10T10:57:35+02:00</time>
      </trkpt>
      <trkpt lat="47.85357" lon="6.68914">
        <ele>680</ele>
        <time>2021-10-10T10:57:52+02:00</time>
      </trkpt>
      <trkpt lat="47.85376" lon="6.68935">
        <ele>678</ele>
        <time>2021-10-10T10:58:06+02:00</time>
      </trkpt>
      <trkpt lat="47.85386" lon="6.68965">
        <ele>677</ele>
        <time>2021-10-10T10:58:23+02:00</time>
      </trkpt>
      <trkpt lat="47.85404" lon="6.68986">
        <ele>676</ele>
        <time>2021-10-10T10:58:46+02:00</time>
      </trkpt>
      <trkpt lat="47.85422" lon="6.69008">
        <ele>676</ele>
        <time>2021-10-10T10:59:06+02:00</time>
      </trkpt>
      <trkpt lat="47.85442" lon="6.69027">
        <ele>677</ele>
        <time>2021-10-10T10:59:24+02:00</time>
      </trkpt>
      <trkpt lat="47.85459" lon="6.6905">
        <ele>678</ele>
        <time>2021-10-10T10:59:40+02:00</time>
      </trkpt>
      <trkpt lat="47.85472" lon="6.69078">
        <ele>680</ele>
        <time>2021-10-10T11:00:00+02:00</time>
      </trkpt>
      <trkpt lat="47.85476" lon="6.69113">
        <ele>681</ele>
        <time>2021-10-10T11:00:22+02:00</time>
      </trkpt>
      <trkpt lat="47.8548" lon="6.69146">
        <ele>681</ele>
        <time>2021-10-10T11:00:42+02:00</time>
      </trkpt>
      <trkpt lat="47.85493" lon="6.69176">
        <ele>681</ele>
        <time>2021-10-10T11:01:02+02:00</time>
      </trkpt>
      <trkpt lat="47.85505" lon="6.69204">
        <ele>683</ele>
        <time>2021-10-10T11:01:21+02:00</time>
      </trkpt>
      <trkpt lat="47.85521" lon="6.69229">
        <ele>686</ele>
        <time>2021-10-10T11:01:41+02:00</time>
      </trkpt>
      <trkpt lat="47.85536" lon="6.69254">
        <ele>687</ele>
        <time>2021-10-10T11:01:58+02:00</time>
      </trkpt>
      <trkpt lat="47.85556" lon="6.69271">
        <ele>688</ele>
        <time>2021-10-10T11:02:18+02:00</time>
      </trkpt>
      <trkpt lat="47.85574" lon="6.69292">
        <ele>689</ele>
        <time>2021-10-10T11:03:00+02:00</time>
      </trkpt>
      <trkpt lat="47.85595" lon="6.69307">
        <ele>690</ele>
        <time>2021-10-10T11:03:22+02:00</time>
      </trkpt>
      <trkpt lat="47.85617" lon="6.69313">
        <ele>692</ele>
        <time>2021-10-10T11:03:42+02:00</time>
      </trkpt>
      <trkpt lat="47.8564" lon="6.69318">
        <ele>695</ele>
        <time>2021-10-10T11:04:03+02:00</time>
      </trkpt>
      <trkpt lat="47.85662" lon="6.69323">
        <ele>697</ele>
        <time>2021-10-10T11:04:23+02:00</time>
      </trkpt>
      <trkpt lat="47.85686" lon="6.69323">
        <ele>699</ele>
        <time>2021-10-10T11:04:43+02:00</time>
      </trkpt>
      <trkpt lat="47.85707" lon="6.69339">
        <ele>699</ele>
        <time>2021-10-10T11:05:25+02:00</time>
      </trkpt>
      <trkpt lat="47.85723" lon="6.69366">
        <ele>701</ele>
        <time>2021-10-10T11:05:42+02:00</time>
      </trkpt>
      <trkpt lat="47.85733" lon="6.69396">
        <ele>700</ele>
        <time>2021-10-10T11:06:05+02:00</time>
      </trkpt>
      <trkpt lat="47.85739" lon="6.6943">
        <ele>700</ele>
        <time>2021-10-10T11:06:24+02:00</time>
      </trkpt>
      <trkpt lat="47.85748" lon="6.69461">
        <ele>699</ele>
        <time>2021-10-10T11:06:43+02:00</time>
      </trkpt>
      <trkpt lat="47.8576" lon="6.69489">
        <ele>699</ele>
        <time>2021-10-10T11:07:00+02:00</time>
      </trkpt>
      <trkpt lat="47.85774" lon="6.69517">
        <ele>700</ele>
        <time>2021-10-10T11:07:16+02:00</time>
      </trkpt>
      <trkpt lat="47.85795" lon="6.69527">
        <ele>703</ele>
        <time>2021-10-10T11:07:36+02:00</time>
      </trkpt>
      <trkpt lat="47.85818" lon="6.69524">
        <ele>704</ele>
        <time>2021-10-10T11:07:54+02:00</time>
      </trkpt>
      <trkpt lat="47.85841" lon="6.69525">
        <ele>705</ele>
        <time>2021-10-10T11:08:16+02:00</time>
      </trkpt>
      <trkpt lat="47.85858" lon="6.69548">
        <ele>705</ele>
        <time>2021-10-10T11:08:38+02:00</time>
      </trkpt>
      <trkpt lat="47.85877" lon="6.69567">
        <ele>705</ele>
        <time>2021-10-10T11:09:05+02:00</time>
      </trkpt>
      <trkpt lat="47.85899" lon="6.69575">
        <ele>706</ele>
        <time>2021-10-10T11:09:25+02:00</time>
      </trkpt>
      <trkpt lat="47.85917" lon="6.69596">
        <ele>707</ele>
        <time>2021-10-10T11:09:46+02:00</time>
      </trkpt>
      <trkpt lat="47.85934" lon="6.69621">
        <ele>707</ele>
        <time>2021-10-10T11:10:05+02:00</time>
      </trkpt>
      <trkpt lat="47.85951" lon="6.69643">
        <ele>708</ele>
        <time>2021-10-10T11:10:23+02:00</time>
      </trkpt>
      <trkpt lat="47.85967" lon="6.69667">
        <ele>709</ele>
        <time>2021-10-10T11:10:51+02:00</time>
      </trkpt>
      <trkpt lat="47.85991" lon="6.69674">
        <ele>710</ele>
        <time>2021-10-10T11:11:08+02:00</time>
      </trkpt>
      <trkpt lat="47.86015" lon="6.69683">
        <ele>710</ele>
        <time>2021-10-10T11:11:20+02:00</time>
      </trkpt>
      <trkpt lat="47.86037" lon="6.69693">
        <ele>711</ele>
        <time>2021-10-10T11:11:33+02:00</time>
      </trkpt>
      <trkpt lat="47.86056" lon="6.6971">
        <ele>712</ele>
        <time>2021-10-10T11:11:44+02:00</time>
      </trkpt>
      <trkpt lat="47.86077" lon="6.69724">
        <ele>712</ele>
        <time>2021-10-10T11:12:03+02:00</time>
      </trkpt>
      <trkpt lat="47.86094" lon="6.69746">
        <ele>711</ele>
        <time>2021-10-10T11:12:15+02:00</time>
      </trkpt>
      <trkpt lat="47.86117" lon="6.69754">
        <ele>710</ele>
        <time>2021-10-10T11:12:42+02:00</time>
      </trkpt>
      <trkpt lat="47.86139" lon="6.69749">
        <ele>711</ele>
        <time>2021-10-10T11:13:12+02:00</time>
      </trkpt>
      <trkpt lat="47.86162" lon="6.69745">
        <ele>710</ele>
        <time>2021-10-10T11:13:29+02:00</time>
      </trkpt>
      <trkpt lat="47.86182" lon="6.69728">
        <ele>710</ele>
        <time>2021-10-10T11:13:48+02:00</time>
      </trkpt>
      <trkpt lat="47.86185" lon="6.69692">
        <ele>710</ele>
        <time>2021-10-10T11:14:13+02:00</time>
      </trkpt>
      <trkpt lat="47.86174" lon="6.69662">
        <ele>710</ele>
        <time>2021-10-10T11:14:30+02:00</time>
      </trkpt>
      <trkpt lat="47.86168" lon="6.69628">
        <ele>711</ele>
        <time>2021-10-10T11:14:48+02:00</time>
      </trkpt>
      <trkpt lat="47.86161" lon="6.69595">
        <ele>710</ele>
        <time>2021-10-10T11:15:08+02:00</time>
      </trkpt>
      <trkpt lat="47.86144" lon="6.69571">
        <ele>709</ele>
        <time>2021-10-10T11:15:36+02:00</time>
      </trkpt>
      <trkpt lat="47.86126" lon="6.6955">
        <ele>706</ele>
        <time>2021-10-10T11:16:03+02:00</time>
      </trkpt>
      <trkpt lat="47.86105" lon="6.69536">
        <ele>704</ele>
        <time>2021-10-10T11:16:21+02:00</time>
      </trkpt>
      <trkpt lat="47.86087" lon="6.69515">
        <ele>701</ele>
        <time>2021-10-10T11:16:36+02:00</time>
      </trkpt>
      <trkpt lat="47.86073" lon="6.69489">
        <ele>699</ele>
        <time>2021-10-10T11:16:55+02:00</time>
      </trkpt>
      <trkpt lat="47.86051" lon="6.69478">
        <ele>699</ele>
        <time>2021-10-10T11:17:21+02:00</time>
      </trkpt>
      <trkpt lat="47.86034" lon="6.69455">
        <ele>697</ele>
        <time>2021-10-10T11:17:35+02:00</time>
      </trkpt>
      <trkpt lat="47.86013" lon="6.69441">
        <ele>696</ele>
        <time>2021-10-10T11:17:54+02:00</time>
      </trkpt>
      <trkpt lat="47.85991" lon="6.69437">
        <ele>696</ele>
        <time>2021-10-10T11:18:10+02:00</time>
      </trkpt>
      <trkpt lat="47.85968" lon="6.69429">
        <ele>696</ele>
        <time>2021-10-10T11:18:30+02:00</time>
      </trkpt>
      <trkpt lat="47.8595" lon="6.69408">
        <ele>696</ele>
        <time>2021-10-10T11:18:53+02:00</time>
      </trkpt>
      <trkpt lat="47.85936" lon="6.69379">
        <ele>695</ele>
        <time>2021-10-10T11:19:12+02:00</time>
      </trkpt>
      <trkpt lat="47.85931" lon="6.69345">
        <ele>693</ele>
        <time>2021-10-10T11:19:29+02:00</time>
      </trkpt>
      <trkpt lat="47.85927" lon="6.69312">
        <ele>691</ele>
        <time>2021-10-10T11:19:52+02:00</time>
      </trkpt>
      <trkpt lat="47.85917" lon="6.69282">
        <ele>691</ele>
        <time>2021-10-10T11:20:13+02:00</time>
      </trkpt>
      <trkpt lat="47.85904" lon="6.69254">
        <ele>691</ele>
        <time>2021-10-10T11:20:27+02:00</time>
      </trkpt>
      <trkpt lat="47.85895" lon="6.69222">
        <ele>691</ele>
        <time>2021-10-10T11:20:49+02:00</time>
      </trkpt>
      <trkpt lat="47.85874" lon="6.69206">
        <ele>690</ele>
        <time>2021-10-10T11:21:07+02:00</time>
      </trkpt>
      <trkpt lat="47.85872" lon="6.69172">
        <ele>689</ele>
        <time>2021-10-10T11:21:30+02:00</time>
      </trkpt>
      <trkpt lat="47.85881" lon="6.69141">
        <ele>687</ele>
        <time>2021-10-10T11:21:49+02:00</time>
      </trkpt>
      <trkpt lat="47.85886" lon="6.69105">
        <ele>685</ele>
        <time>2021-10-10T11:22:06+02:00</time>
      </trkpt>
      <trkpt lat="47.85893" lon="6.69073">
        <ele>684</ele>
        <time>2021-10-10T11:22:25+02:00</time>
      </trkpt>
      <trkpt lat="47.85908" lon="6.69048">
        <ele>681</ele>
        <time>2021-10-10T11:22:43+02:00</time>
      </trkpt>
      <trkpt lat="47.85907" lon="6.69014">
        <ele>682</ele>
        <time>2021-10-10T11:23:03+02:00</time>
      </trkpt>
      <trkpt lat="47.85906" lon="6.6898">
        <ele>681</ele>
        <time>2021-10-10T11:23:20+02:00</time>
      </trkpt>
      <trkpt lat="47.85901" lon="6.68946">
        <ele>681</ele>
        <time>2021-10-10T11:23:53+02:00</time>
      </trkpt>
      <trkpt lat="47.8589" lon="6.68914">
        <ele>682</ele>
        <time>2021-10-10T11:24:07+02:00</time>
      </trkpt>
      <trkpt lat="47.85879" lon="6.68883">
        <ele>681</ele>
        <time>2021-10-10T11:24:22+02:00</time>
      </trkpt>
      <trkpt lat="47.85874" lon="6.6885">
        <ele>680</ele>
        <time>2021-10-10T11:24:41+02:00</time>
      </trkpt>
      <trkpt lat="47.85872" lon="6.68814">
        <ele>679</ele>
        <time>2021-10-10T11:25:01+02:00</time>
      </trkpt>
      <trkpt lat="47.85873" lon="6.6878">
        <ele>676</ele>
        <time>2021-10-10T11:25:17+02:00</time>
      </trkpt>
      <trkpt lat="47.85872" lon="6.68745">
        <ele>676</ele>
        <time>2021-10-10T11:25:35+02:00</time>
      </trkpt>
      <trkpt lat="47.85876" lon="6.68712">
        <ele>676</ele>
        <time>2021-10-10T11:25:53+02:00</time>
      </trkpt>
      <trkpt lat="47.85863" lon="6.68685">
        <ele>679</ele>
        <time>2021-10-10T11:27:11+02:00</time>
      </trkpt>
      <trkpt lat="47.8584" lon="6.68685">
        <ele>683</ele>
        <time>2021-10-10T11:27:26+02:00</time>
      </trkpt>
      <trkpt lat="47.85816" lon="6.68684">
        <ele>686</ele>
        <time>2021-10-10T11:27:49+02:00</time>
      </trkpt>
      <trkpt lat="47.85794" lon="6.68694">
        <ele>688</ele>
        <time>2021-10-10T11:28:10+02:00</time>
      </trkpt>
      <trkpt lat="47.85771" lon="6.68698">
        <ele>689</ele>
        <time>2021-10-10T11:28:34+02:00</time>
      </trkpt>
      <trkpt lat="47.8575" lon="6.68682">
        <ele>691</ele>
        <time>2021-10-10T11:28:55+02:00</time>
      </trkpt>
      <trkpt lat="47.8574" lon="6.68652">
        <ele>692</ele>
        <time>2021-10-10T11:29:13+02:00</time>
      </trkpt>
      <trkpt lat="47.85727" lon="6.68624">
        <ele>693</ele>
        <time>2021-10-10T11:29:32+02:00</time>
      </trkpt>
      <trkpt lat="47.85723" lon="6.68591">
        <ele>694</ele>
        <time>2021-10-10T11:29:52+02:00</time>
      </trkpt>
      <trkpt lat="47.85721" lon="6.68557">
        <ele>694</ele>
        <time>2021-10-10T11:30:11+02:00</time>
      </trkpt>
      <trkpt lat="47.85717" lon="6.68524">
        <ele>694</ele>
        <time>2021-10-10T11:30:28+02:00</time>
      </trkpt>
      <trkpt lat="47.85711" lon="6.68491">
        <ele>693</ele>
        <time>2021-10-10T11:30:46+02:00</time>
      </trkpt>
      <trkpt lat="47.85702" lon="6.68459">
        <ele>693</ele>
        <time>2021-10-10T11:31:04+02:00</time>
      </trkpt>
      <trkpt lat="47.85689" lon="6.68432">
        <ele>694</ele>
        <time>2021-10-10T11:31:22+02:00</time>
      </trkpt>
      <trkpt lat="47.85676" lon="6.68402">
        <ele>693</ele>
        <time>2021-10-10T11:31:43+02:00</time>
      </trkpt>
      <trkpt lat="47.85666" lon="6.68372">
        <ele>692</ele>
        <time>2021-10-10T11:32:05+02:00</time>
      </trkpt>
      <trkpt lat="47.8566" lon="6.68339">
        <ele>691</ele>
        <time>2021-10-10T11:32:23+02:00</time>
      </trkpt>
      <trkpt lat="47.85648" lon="6.68309">
        <ele>690</ele>
        <time>2021-10-10T11:32:38+02:00</time>
      </trkpt>
      <trkpt lat="47.85638" lon="6.68275">
        <ele>689</ele>
        <time>2021-10-10T11:32:57+02:00</time>
      </trkpt>
      <trkpt lat="47.85634" lon="6.68241">
        <ele>687</ele>
        <time>2021-10-10T11:33:17+02:00</time>
      </trkpt>
      <trkpt lat="47.85622" lon="6.68213">
        <ele>687</ele>
        <time>2021-10-10T11:33:33+02:00</time>
      </trkpt>
      <trkpt lat="47.8561" lon="6.68181">
        <ele>686</ele>
        <time>2021-10-10T11:33:47+02:00</time>
      </trkpt>
      <trkpt lat="47.85601" lon="6.6815">
        <ele>685</ele>
        <time>2021-10-10T11:34:06+02:00</time>
      </trkpt>
      <trkpt lat="47.85583" lon="6.68129">
        <ele>684</ele>
        <time>2021-10-10T11:34:29+02:00</time>
      </trkpt>
      <trkpt lat="47.85567" lon="6.68105">
        <ele>683</ele>
        <time>2021-10-10T11:34:47+02:00</time>
      </trkpt>
      <trkpt lat="47.8555" lon="6.68078">
        <ele>682</ele>
        <time>2021-10-10T11:35:02+02:00</time>
      </trkpt>
      <trkpt lat="47.8553" lon="6.68063">
        <ele>679</ele>
        <time>2021-10-10T11:35:20+02:00</time>
      </trkpt>
      <trkpt lat="47.8551" lon="6.68047">
        <ele>677</ele>
        <time>2021-10-10T11:35:43+02:00</time>
      </trkpt>
      <trkpt lat="47.85498" lon="6.68017">
        <ele>675</ele>
        <time>2021-10-10T11:36:01+02:00</time>
      </trkpt>
      <trkpt lat="47.8549" lon="6.67984">
        <ele>673</ele>
        <time>2021-10-10T11:36:19+02:00</time>
      </trkpt>
      <trkpt lat="47.85473" lon="6.67961">
        <ele>669</ele>
        <time>2021-10-10T11:36:44+02:00</time>
      </trkpt>
      <trkpt lat="47.8546" lon="6.67934">
        <ele>665</ele>
        <time>2021-10-10T11:36:59+02:00</time>
      </trkpt>
      <trkpt lat="47.85445" lon="6.67906">
        <ele>661</ele>
        <time>2021-10-10T11:37:18+02:00</time>
      </trkpt>
      <trkpt lat="47.85444" lon="6.67872">
        <ele>658</ele>
        <time>2021-10-10T11:37:49+02:00</time>
      </trkpt>
      <trkpt lat="47.85425" lon="6.67853">
        <ele>653</ele>
        <time>2021-10-10T11:38:08+02:00</time>
      </trkpt>
      <trkpt lat="47.85402" lon="6.67847">
        <ele>647</ele>
        <time>2021-10-10T11:38:28+02:00</time>
      </trkpt>
      <trkpt lat="47.85379" lon="6.67844">
        <ele>644</ele>
        <time>2021-10-10T11:38:47+02:00</time>
      </trkpt>
      <trkpt lat="47.85356" lon="6.67849">
        <ele>641</ele>
        <time>2021-10-10T11:39:06+02:00</time>
      </trkpt>
      <trkpt lat="47.85337" lon="6.67829">
        <ele>638</ele>
        <time>2021-10-10T11:39:25+02:00</time>
      </trkpt>
      <trkpt lat="47.85327" lon="6.67799">
        <ele>635</ele>
        <time>2021-10-10T11:39:42+02:00</time>
      </trkpt>
      <trkpt lat="47.85323" lon="6.67765">
        <ele>634</ele>
        <time>2021-10-10T11:40:01+02:00</time>
      </trkpt>
      <trkpt lat="47.85318" lon="6.67731">
        <ele>634</ele>
        <time>2021-10-10T11:40:19+02:00</time>
      </trkpt>
      <trkpt lat="47.85307" lon="6.67701">
        <ele>633</ele>
        <time>2021-10-10T11:40:37+02:00</time>
      </trkpt>
      <trkpt lat="47.85284" lon="6.67704">
        <ele>631</ele>
        <time>2021-10-10T11:40:57+02:00</time>
      </trkpt>
      <trkpt lat="47.85261" lon="6.67705">
        <ele>631</ele>
        <time>2021-10-10T11:41:15+02:00</time>
      </trkpt>
      <trkpt lat="47.85239" lon="6.67697">
        <ele>631</ele>
        <time>2021-10-10T11:41:33+02:00</time>
      </trkpt>
      <trkpt lat="47.85216" lon="6.67694">
        <ele>631</ele>
        <time>2021-10-10T11:41:51+02:00</time>
      </trkpt>
      <trkpt lat="47.85193" lon="6.67695">
        <ele>631</ele>
        <time>2021-10-10T11:42:44+02:00</time>
      </trkpt>
      <trkpt lat="47.8517" lon="6.67689">
        <ele>634</ele>
        <time>2021-10-10T11:43:07+02:00</time>
      </trkpt>
      <trkpt lat="47.85149" lon="6.67675">
        <ele>637</ele>
        <time>2021-10-10T11:43:30+02:00</time>
      </trkpt>
      <trkpt lat="47.85126" lon="6.67672">
        <ele>641</ele>
        <time>2021-10-10T11:43:55+02:00</time>
      </trkpt>
      <trkpt lat="47.85103" lon="6.67676">
        <ele>644</ele>
        <time>2021-10-10T11:44:15+02:00</time>
      </trkpt>
      <trkpt lat="47.8508" lon="6.67679">
        <ele>647</ele>
        <time>2021-10-10T11:44:45+02:00</time>
      </trkpt>
      <trkpt lat="47.8506" lon="6.67664">
        <ele>649</ele>
        <time>2021-10-10T11:45:04+02:00</time>
      </trkpt>
      <trkpt lat="47.85039" lon="6.67649">
        <ele>650</ele>
        <time>2021-10-10T11:45:20+02:00</time>
      </trkpt>
      <trkpt lat="47.85017" lon="6.6764">
        <ele>651</ele>
        <time>2021-10-10T11:45:36+02:00</time>
      </trkpt>
      <trkpt lat="47.84995" lon="6.67626">
        <ele>652</ele>
        <time>2021-10-10T11:45:54+02:00</time>
      </trkpt>
      <trkpt lat="47.84983" lon="6.67626">
        <ele>653</ele>
        <time>2021-10-10T11:47:53+02:00</time>
      </trkpt>
      <trkpt lat="47.84957" lon="6.67632">
        <ele>646</ele>
        <time>2021-10-10T11:47:53+02:00</time>
      </trkpt>
      <trkpt lat="47.84944" lon="6.67603">
        <ele>654</ele>
        <time>2021-10-10T11:48:10+02:00</time>
      </trkpt>
      <trkpt lat="47.84924" lon="6.67585">
        <ele>654</ele>
        <time>2021-10-10T11:48:35+02:00</time>
      </trkpt>
      <trkpt lat="47.84911" lon="6.67559">
        <ele>653</ele>
        <time>2021-10-10T11:48:54+02:00</time>
      </trkpt>
      <trkpt lat="47.84899" lon="6.6753">
        <ele>653</ele>
        <time>2021-10-10T11:49:08+02:00</time>
      </trkpt>
      <trkpt lat="47.84881" lon="6.67509">
        <ele>654</ele>
        <time>2021-10-10T11:49:25+02:00</time>
      </trkpt>
      <trkpt lat="47.8486" lon="6.67495">
        <ele>656</ele>
        <time>2021-10-10T11:49:46+02:00</time>
      </trkpt>
      <trkpt lat="47.84838" lon="6.67484">
        <ele>659</ele>
        <time>2021-10-10T11:50:06+02:00</time>
      </trkpt>
      <trkpt lat="47.84816" lon="6.67475">
        <ele>660</ele>
        <time>2021-10-10T11:50:29+02:00</time>
      </trkpt>
      <trkpt lat="47.84793" lon="6.67477">
        <ele>662</ele>
        <time>2021-10-10T11:50:49+02:00</time>
      </trkpt>
      <trkpt lat="47.8477" lon="6.6748">
        <ele>663</ele>
        <time>2021-10-10T11:51:09+02:00</time>
      </trkpt>
      <trkpt lat="47.84747" lon="6.67485">
        <ele>663</ele>
        <time>2021-10-10T11:51:28+02:00</time>
      </trkpt>
      <trkpt lat="47.84725" lon="6.67489">
        <ele>664</ele>
        <time>2021-10-10T11:51:46+02:00</time>
      </trkpt>
      <trkpt lat="47.84702" lon="6.67485">
        <ele>664</ele>
        <time>2021-10-10T11:52:06+02:00</time>
      </trkpt>
      <trkpt lat="47.84679" lon="6.67484">
        <ele>664</ele>
        <time>2021-10-10T11:52:24+02:00</time>
      </trkpt>
      <trkpt lat="47.84656" lon="6.67489">
        <ele>663</ele>
        <time>2021-10-10T11:52:42+02:00</time>
      </trkpt>
      <trkpt lat="47.84634" lon="6.67498">
        <ele>662</ele>
        <time>2021-10-10T11:53:04+02:00</time>
      </trkpt>
      <trkpt lat="47.84614" lon="6.67515">
        <ele>662</ele>
        <time>2021-10-10T11:53:23+02:00</time>
      </trkpt>
      <trkpt lat="47.846" lon="6.67542">
        <ele>661</ele>
        <time>2021-10-10T11:53:48+02:00</time>
      </trkpt>
      <trkpt lat="47.84585" lon="6.67568">
        <ele>661</ele>
        <time>2021-10-10T11:54:10+02:00</time>
      </trkpt>
      <trkpt lat="47.84566" lon="6.67585">
        <ele>661</ele>
        <time>2021-10-10T11:54:24+02:00</time>
      </trkpt>
      <trkpt lat="47.84547" lon="6.67605">
        <ele>661</ele>
        <time>2021-10-10T11:54:42+02:00</time>
      </trkpt>
      <trkpt lat="47.84529" lon="6.67626">
        <ele>661</ele>
        <time>2021-10-10T11:54:57+02:00</time>
      </trkpt>
      <trkpt lat="47.84511" lon="6.67649">
        <ele>663</ele>
        <time>2021-10-10T11:55:22+02:00</time>
      </trkpt>
      <trkpt lat="47.84492" lon="6.67667">
        <ele>662</ele>
        <time>2021-10-10T11:55:40+02:00</time>
      </trkpt>
      <trkpt lat="47.84471" lon="6.67684">
        <ele>661</ele>
        <time>2021-10-10T11:56:00+02:00</time>
      </trkpt>
      <trkpt lat="47.84454" lon="6.67706">
        <ele>659</ele>
        <time>2021-10-10T11:56:17+02:00</time>
      </trkpt>
      <trkpt lat="47.84442" lon="6.67735">
        <ele>657</ele>
        <time>2021-10-10T11:56:51+02:00</time>
      </trkpt>
      <trkpt lat="47.84419" lon="6.67743">
        <ele>656</ele>
        <time>2021-10-10T11:57:37+02:00</time>
      </trkpt>
      <trkpt lat="47.84396" lon="6.67738">
        <ele>655</ele>
        <time>2021-10-10T11:57:53+02:00</time>
      </trkpt>
      <trkpt lat="47.84383" lon="6.6771">
        <ele>656</ele>
        <time>2021-10-10T12:00:09+02:00</time>
      </trkpt>
      <trkpt lat="47.84383" lon="6.67675">
        <ele>656</ele>
        <time>2021-10-10T12:01:12+02:00</time>
      </trkpt>
      <trkpt lat="47.84388" lon="6.67641">
        <ele>657</ele>
        <time>2021-10-10T12:01:34+02:00</time>
      </trkpt>
      <trkpt lat="47.84399" lon="6.67611">
        <ele>657</ele>
        <time>2021-10-10T12:01:52+02:00</time>
      </trkpt>
      <trkpt lat="47.84416" lon="6.67587">
        <ele>656</ele>
        <time>2021-10-10T12:02:12+02:00</time>
      </trkpt>
      <trkpt lat="47.84436" lon="6.67569">
        <ele>655</ele>
        <time>2021-10-10T12:02:30+02:00</time>
      </trkpt>
      <trkpt lat="47.8444" lon="6.67535">
        <ele>654</ele>
        <time>2021-10-10T12:02:53+02:00</time>
      </trkpt>
      <trkpt lat="47.8443" lon="6.67505">
        <ele>653</ele>
        <time>2021-10-10T12:03:07+02:00</time>
      </trkpt>
      <trkpt lat="47.8442" lon="6.67474">
        <ele>653</ele>
        <time>2021-10-10T12:03:23+02:00</time>
      </trkpt>
      <trkpt lat="47.84421" lon="6.6744">
        <ele>653</ele>
        <time>2021-10-10T12:03:39+02:00</time>
      </trkpt>
      <trkpt lat="47.84442" lon="6.67425">
        <ele>653</ele>
        <time>2021-10-10T12:04:00+02:00</time>
      </trkpt>
      <trkpt lat="47.8446" lon="6.67405">
        <ele>653</ele>
        <time>2021-10-10T12:04:16+02:00</time>
      </trkpt>
      <trkpt lat="47.84469" lon="6.67375">
        <ele>653</ele>
        <time>2021-10-10T12:04:31+02:00</time>
      </trkpt>
      <trkpt lat="47.84465" lon="6.6734">
        <ele>652</ele>
        <time>2021-10-10T12:04:47+02:00</time>
      </trkpt>
      <trkpt lat="47.8445" lon="6.67314">
        <ele>652</ele>
        <time>2021-10-10T12:05:25+02:00</time>
      </trkpt>
      <trkpt lat="47.84438" lon="6.67285">
        <ele>653</ele>
        <time>2021-10-10T12:05:43+02:00</time>
      </trkpt>
      <trkpt lat="47.84428" lon="6.67255">
        <ele>654</ele>
        <time>2021-10-10T12:06:01+02:00</time>
      </trkpt>
      <trkpt lat="47.84416" lon="6.67226">
        <ele>654</ele>
        <time>2021-10-10T12:06:17+02:00</time>
      </trkpt>
      <trkpt lat="47.84402" lon="6.67198">
        <ele>654</ele>
        <time>2021-10-10T12:06:35+02:00</time>
      </trkpt>
      <trkpt lat="47.84385" lon="6.67174">
        <ele>654</ele>
        <time>2021-10-10T12:06:51+02:00</time>
      </trkpt>
      <trkpt lat="47.84379" lon="6.67141">
        <ele>654</ele>
        <time>2021-10-10T12:07:10+02:00</time>
      </trkpt>
      <trkpt lat="47.84383" lon="6.67107">
        <ele>651</ele>
        <time>2021-10-10T12:07:28+02:00</time>
      </trkpt>
      <trkpt lat="47.84379" lon="6.67073">
        <ele>647</ele>
        <time>2021-10-10T12:07:46+02:00</time>
      </trkpt>
      <trkpt lat="47.84374" lon="6.67039">
        <ele>646</ele>
        <time>2021-10-10T12:08:04+02:00</time>
      </trkpt>
      <trkpt lat="47.84389" lon="6.6699">
        <ele>644</ele>
        <time>2021-10-10T12:09:08+02:00</time>
      </trkpt>
      <trkpt lat="47.84387" lon="6.66983">
        <ele>587</ele>
        <time>2021-10-10T12:09:09+02:00</time>
      </trkpt>
      <trkpt lat="47.84399" lon="6.66953">
        <ele>642</ele>
        <time>2021-10-10T12:09:24+02:00</time>
      </trkpt>
      <trkpt lat="47.84406" lon="6.66921">
        <ele>640</ele>
        <time>2021-10-10T12:09:47+02:00</time>
      </trkpt>
      <trkpt lat="47.84402" lon="6.66888">
        <ele>642</ele>
        <time>2021-10-10T12:10:04+02:00</time>
      </trkpt>
      <trkpt lat="47.84401" lon="6.66855">
        <ele>642</ele>
        <time>2021-10-10T12:10:21+02:00</time>
      </trkpt>
      <trkpt lat="47.84403" lon="6.66821">
        <ele>640</ele>
        <time>2021-10-10T12:10:38+02:00</time>
      </trkpt>
      <trkpt lat="47.84403" lon="6.66787">
        <ele>639</ele>
        <time>2021-10-10T12:10:56+02:00</time>
      </trkpt>
      <trkpt lat="47.84406" lon="6.66753">
        <ele>636</ele>
        <time>2021-10-10T12:11:15+02:00</time>
      </trkpt>
      <trkpt lat="47.84403" lon="6.66719">
        <ele>636</ele>
        <time>2021-10-10T12:11:35+02:00</time>
      </trkpt>
      <trkpt lat="47.84402" lon="6.66684">
        <ele>634</ele>
        <time>2021-10-10T12:11:57+02:00</time>
      </trkpt>
      <trkpt lat="47.84405" lon="6.66651">
        <ele>632</ele>
        <time>2021-10-10T12:12:14+02:00</time>
      </trkpt>
      <trkpt lat="47.84406" lon="6.66615">
        <ele>630</ele>
        <time>2021-10-10T12:12:27+02:00</time>
      </trkpt>
      <trkpt lat="47.84402" lon="6.66581">
        <ele>630</ele>
        <time>2021-10-10T12:12:42+02:00</time>
      </trkpt>
      <trkpt lat="47.84393" lon="6.66549">
        <ele>629</ele>
        <time>2021-10-10T12:12:59+02:00</time>
      </trkpt>
      <trkpt lat="47.84389" lon="6.66514">
        <ele>627</ele>
        <time>2021-10-10T12:13:16+02:00</time>
      </trkpt>
      <trkpt lat="47.84375" lon="6.66487">
        <ele>626</ele>
        <time>2021-10-10T12:13:32+02:00</time>
      </trkpt>
      <trkpt lat="47.84365" lon="6.66455">
        <ele>624</ele>
        <time>2021-10-10T12:13:48+02:00</time>
      </trkpt>
      <trkpt lat="47.84357" lon="6.66422">
        <ele>622</ele>
        <time>2021-10-10T12:14:08+02:00</time>
      </trkpt>
      <trkpt lat="47.84336" lon="6.66413">
        <ele>622</ele>
        <time>2021-10-10T12:14:36+02:00</time>
      </trkpt>
      <trkpt lat="47.84323" lon="6.66442">
        <ele>622</ele>
        <time>2021-10-10T12:14:54+02:00</time>
      </trkpt>
      <trkpt lat="47.84319" lon="6.6645">
        <ele>623</ele>
        <time>2021-10-10T12:15:38+02:00</time>
      </trkpt>
      <trkpt lat="47.843" lon="6.66469">
        <ele>624</ele>
        <time>2021-10-10T12:16:11+02:00</time>
      </trkpt>
      <trkpt lat="47.84278" lon="6.66478">
        <ele>625</ele>
        <time>2021-10-10T12:16:37+02:00</time>
      </trkpt>
      <trkpt lat="47.84254" lon="6.66484">
        <ele>624</ele>
        <time>2021-10-10T12:16:58+02:00</time>
      </trkpt>
      <trkpt lat="47.84233" lon="6.66497">
        <ele>624</ele>
        <time>2021-10-10T12:17:13+02:00</time>
      </trkpt>
      <trkpt lat="47.84213" lon="6.66514">
        <ele>624</ele>
        <time>2021-10-10T12:17:33+02:00</time>
      </trkpt>
      <trkpt lat="47.84195" lon="6.66534">
        <ele>624</ele>
        <time>2021-10-10T12:17:53+02:00</time>
      </trkpt>
      <trkpt lat="47.84171" lon="6.66535">
        <ele>624</ele>
        <time>2021-10-10T12:18:14+02:00</time>
      </trkpt>
      <trkpt lat="47.84165" lon="6.66502">
        <ele>622</ele>
        <time>2021-10-10T12:18:38+02:00</time>
      </trkpt>
      <trkpt lat="47.84163" lon="6.66468">
        <ele>622</ele>
        <time>2021-10-10T12:18:57+02:00</time>
      </trkpt>
      <trkpt lat="47.84163" lon="6.66434">
        <ele>622</ele>
        <time>2021-10-10T12:19:17+02:00</time>
      </trkpt>
      <trkpt lat="47.84162" lon="6.664">
        <ele>623</ele>
        <time>2021-10-10T12:19:39+02:00</time>
      </trkpt>
      <trkpt lat="47.84159" lon="6.66366">
        <ele>623</ele>
        <time>2021-10-10T12:19:55+02:00</time>
      </trkpt>
      <trkpt lat="47.84152" lon="6.66333">
        <ele>622</ele>
        <time>2021-10-10T12:20:10+02:00</time>
      </trkpt>
      <trkpt lat="47.84146" lon="6.66301">
        <ele>622</ele>
        <time>2021-10-10T12:20:26+02:00</time>
      </trkpt>
      <trkpt lat="47.84127" lon="6.66284">
        <ele>622</ele>
        <time>2021-10-10T12:20:48+02:00</time>
      </trkpt>
      <trkpt lat="47.84105" lon="6.66274">
        <ele>622</ele>
        <time>2021-10-10T12:21:07+02:00</time>
      </trkpt>
      <trkpt lat="47.84083" lon="6.66283">
        <ele>622</ele>
        <time>2021-10-10T12:21:26+02:00</time>
      </trkpt>
      <trkpt lat="47.8406" lon="6.66289">
        <ele>622</ele>
        <time>2021-10-10T12:21:42+02:00</time>
      </trkpt>
      <trkpt lat="47.84037" lon="6.66294">
        <ele>623</ele>
        <time>2021-10-10T12:22:05+02:00</time>
      </trkpt>
      <trkpt lat="47.84015" lon="6.66302">
        <ele>625</ele>
        <time>2021-10-10T12:22:25+02:00</time>
      </trkpt>
      <trkpt lat="47.83992" lon="6.66309">
        <ele>626</ele>
        <time>2021-10-10T12:22:47+02:00</time>
      </trkpt>
      <trkpt lat="47.83972" lon="6.66326">
        <ele>627</ele>
        <time>2021-10-10T12:23:09+02:00</time>
      </trkpt>
      <trkpt lat="47.83951" lon="6.66338">
        <ele>630</ele>
        <time>2021-10-10T12:23:28+02:00</time>
      </trkpt>
      <trkpt lat="47.83932" lon="6.66317">
        <ele>632</ele>
        <time>2021-10-10T12:23:50+02:00</time>
      </trkpt>
      <trkpt lat="47.83912" lon="6.66299">
        <ele>634</ele>
        <time>2021-10-10T12:24:14+02:00</time>
      </trkpt>
      <trkpt lat="47.83897" lon="6.66325">
        <ele>637</ele>
        <time>2021-10-10T12:24:34+02:00</time>
      </trkpt>
      <trkpt lat="47.83874" lon="6.66323">
        <ele>637</ele>
        <time>2021-10-10T12:25:30+02:00</time>
      </trkpt>
      <trkpt lat="47.83865" lon="6.66292">
        <ele>636</ele>
        <time>2021-10-10T12:25:47+02:00</time>
      </trkpt>
      <trkpt lat="47.83855" lon="6.66259">
        <ele>635</ele>
        <time>2021-10-10T12:26:04+02:00</time>
      </trkpt>
      <trkpt lat="47.83848" lon="6.66227">
        <ele>633</ele>
        <time>2021-10-10T12:26:22+02:00</time>
      </trkpt>
      <trkpt lat="47.83834" lon="6.662">
        <ele>633</ele>
        <time>2021-10-10T12:26:41+02:00</time>
      </trkpt>
      <trkpt lat="47.83835" lon="6.66166">
        <ele>631</ele>
        <time>2021-10-10T12:27:02+02:00</time>
      </trkpt>
      <trkpt lat="47.83822" lon="6.66138">
        <ele>630</ele>
        <time>2021-10-10T12:27:17+02:00</time>
      </trkpt>
      <trkpt lat="47.83811" lon="6.66109">
        <ele>629</ele>
        <time>2021-10-10T12:27:34+02:00</time>
      </trkpt>
      <trkpt lat="47.83793" lon="6.66087">
        <ele>628</ele>
        <time>2021-10-10T12:27:52+02:00</time>
      </trkpt>
      <trkpt lat="47.83776" lon="6.66062">
        <ele>626</ele>
        <time>2021-10-10T12:28:10+02:00</time>
      </trkpt>
      <trkpt lat="47.83788" lon="6.66032">
        <ele>624</ele>
        <time>2021-10-10T12:28:28+02:00</time>
      </trkpt>
      <trkpt lat="47.83797" lon="6.66">
        <ele>622</ele>
        <time>2021-10-10T12:28:47+02:00</time>
      </trkpt>
      <trkpt lat="47.83811" lon="6.65973">
        <ele>622</ele>
        <time>2021-10-10T12:29:06+02:00</time>
      </trkpt>
      <trkpt lat="47.83816" lon="6.65941">
        <ele>620</ele>
        <time>2021-10-10T12:29:23+02:00</time>
      </trkpt>
      <trkpt lat="47.83805" lon="6.6591">
        <ele>620</ele>
        <time>2021-10-10T12:29:42+02:00</time>
      </trkpt>
      <trkpt lat="47.83791" lon="6.65884">
        <ele>619</ele>
        <time>2021-10-10T12:30:01+02:00</time>
      </trkpt>
      <trkpt lat="47.83774" lon="6.6586">
        <ele>617</ele>
        <time>2021-10-10T12:30:19+02:00</time>
      </trkpt>
      <trkpt lat="47.83769" lon="6.65828">
        <ele>615</ele>
        <time>2021-10-10T12:30:38+02:00</time>
      </trkpt>
      <trkpt lat="47.83759" lon="6.65794">
        <ele>613</ele>
        <time>2021-10-10T12:30:56+02:00</time>
      </trkpt>
      <trkpt lat="47.83746" lon="6.65766">
        <ele>612</ele>
        <time>2021-10-10T12:31:13+02:00</time>
      </trkpt>
      <trkpt lat="47.83732" lon="6.65739">
        <ele>612</ele>
        <time>2021-10-10T12:31:33+02:00</time>
      </trkpt>
      <trkpt lat="47.83712" lon="6.6572">
        <ele>612</ele>
        <time>2021-10-10T12:31:52+02:00</time>
      </trkpt>
      <trkpt lat="47.8369" lon="6.6571">
        <ele>613</ele>
        <time>2021-10-10T12:32:10+02:00</time>
      </trkpt>
      <trkpt lat="47.83669" lon="6.65692">
        <ele>612</ele>
        <time>2021-10-10T12:32:27+02:00</time>
      </trkpt>
      <trkpt lat="47.8366" lon="6.65661">
        <ele>610</ele>
        <time>2021-10-10T12:33:17+02:00</time>
      </trkpt>
      <trkpt lat="47.83653" lon="6.65628">
        <ele>609</ele>
        <time>2021-10-10T12:33:33+02:00</time>
      </trkpt>
      <trkpt lat="47.83637" lon="6.65604">
        <ele>609</ele>
        <time>2021-10-10T12:33:51+02:00</time>
      </trkpt>
      <trkpt lat="47.8363" lon="6.65572">
        <ele>608</ele>
        <time>2021-10-10T12:34:12+02:00</time>
      </trkpt>
      <trkpt lat="47.83639" lon="6.65541">
        <ele>607</ele>
        <time>2021-10-10T12:35:01+02:00</time>
      </trkpt>
      <trkpt lat="47.83638" lon="6.65507">
        <ele>607</ele>
        <time>2021-10-10T12:35:22+02:00</time>
      </trkpt>
      <trkpt lat="47.8364" lon="6.65472">
        <ele>607</ele>
        <time>2021-10-10T12:35:42+02:00</time>
      </trkpt>
      <trkpt lat="47.83647" lon="6.6544">
        <ele>608</ele>
        <time>2021-10-10T12:36:00+02:00</time>
      </trkpt>
      <trkpt lat="47.83648" lon="6.65406">
        <ele>607</ele>
        <time>2021-10-10T12:36:19+02:00</time>
      </trkpt>
      <trkpt lat="47.83643" lon="6.65371">
        <ele>604</ele>
        <time>2021-10-10T12:36:32+02:00</time>
      </trkpt>
      <trkpt lat="47.8364" lon="6.65336">
        <ele>602</ele>
        <time>2021-10-10T12:36:52+02:00</time>
      </trkpt>
      <trkpt lat="47.83653" lon="6.65308">
        <ele>602</ele>
        <time>2021-10-10T12:37:11+02:00</time>
      </trkpt>
      <trkpt lat="47.83664" lon="6.65279">
        <ele>602</ele>
        <time>2021-10-10T12:37:29+02:00</time>
      </trkpt>
      <trkpt lat="47.83668" lon="6.65245">
        <ele>602</ele>
        <time>2021-10-10T12:37:47+02:00</time>
      </trkpt>
      <trkpt lat="47.83669" lon="6.65211">
        <ele>602</ele>
        <time>2021-10-10T12:38:07+02:00</time>
      </trkpt>
      <trkpt lat="47.83665" lon="6.65176">
        <ele>603</ele>
        <time>2021-10-10T12:38:26+02:00</time>
      </trkpt>
      <trkpt lat="47.83653" lon="6.65148">
        <ele>605</ele>
        <time>2021-10-10T12:38:51+02:00</time>
      </trkpt>
      <trkpt lat="47.83646" lon="6.65114">
        <ele>606</ele>
        <time>2021-10-10T12:39:10+02:00</time>
      </trkpt>
      <trkpt lat="47.83641" lon="6.65081">
        <ele>606</ele>
        <time>2021-10-10T12:39:26+02:00</time>
      </trkpt>
      <trkpt lat="47.83644" lon="6.65046">
        <ele>606</ele>
        <time>2021-10-10T12:39:45+02:00</time>
      </trkpt>
      <trkpt lat="47.83639" lon="6.65012">
        <ele>606</ele>
        <time>2021-10-10T12:40:06+02:00</time>
      </trkpt>
      <trkpt lat="47.83633" lon="6.64979">
        <ele>606</ele>
        <time>2021-10-10T12:40:26+02:00</time>
      </trkpt>
      <trkpt lat="47.8363" lon="6.64945">
        <ele>605</ele>
        <time>2021-10-10T12:40:42+02:00</time>
      </trkpt>
      <trkpt lat="47.8363" lon="6.6491">
        <ele>601</ele>
        <time>2021-10-10T12:41:00+02:00</time>
      </trkpt>
      <trkpt lat="47.83624" lon="6.64878">
        <ele>600</ele>
        <time>2021-10-10T12:41:18+02:00</time>
      </trkpt>
      <trkpt lat="47.83617" lon="6.64845">
        <ele>599</ele>
        <time>2021-10-10T12:41:35+02:00</time>
      </trkpt>
      <trkpt lat="47.8362" lon="6.64811">
        <ele>597</ele>
        <time>2021-10-10T12:41:51+02:00</time>
      </trkpt>
      <trkpt lat="47.83627" lon="6.64779">
        <ele>597</ele>
        <time>2021-10-10T12:42:12+02:00</time>
      </trkpt>
      <trkpt lat="47.83621" lon="6.64745">
        <ele>598</ele>
        <time>2021-10-10T12:42:29+02:00</time>
      </trkpt>
      <trkpt lat="47.83617" lon="6.64709">
        <ele>597</ele>
        <time>2021-10-10T12:42:45+02:00</time>
      </trkpt>
      <trkpt lat="47.83611" lon="6.64676">
        <ele>597</ele>
        <time>2021-10-10T12:43:10+02:00</time>
      </trkpt>
      <trkpt lat="47.83608" lon="6.64641">
        <ele>597</ele>
        <time>2021-10-10T12:43:28+02:00</time>
      </trkpt>
      <trkpt lat="47.83605" lon="6.64607">
        <ele>598</ele>
        <time>2021-10-10T12:43:46+02:00</time>
      </trkpt>
      <trkpt lat="47.83609" lon="6.64574">
        <ele>597</ele>
        <time>2021-10-10T12:44:05+02:00</time>
      </trkpt>
      <trkpt lat="47.83601" lon="6.64542">
        <ele>598</ele>
        <time>2021-10-10T12:44:26+02:00</time>
      </trkpt>
      <trkpt lat="47.83584" lon="6.64519">
        <ele>599</ele>
        <time>2021-10-10T12:44:39+02:00</time>
      </trkpt>
      <trkpt lat="47.83569" lon="6.64492">
        <ele>599</ele>
        <time>2021-10-10T12:44:57+02:00</time>
      </trkpt>
      <trkpt lat="47.83553" lon="6.64466">
        <ele>599</ele>
        <time>2021-10-10T12:45:16+02:00</time>
      </trkpt>
      <trkpt lat="47.83536" lon="6.64442">
        <ele>598</ele>
        <time>2021-10-10T12:45:33+02:00</time>
      </trkpt>
      <trkpt lat="47.83514" lon="6.64451">
        <ele>597</ele>
        <time>2021-10-10T12:45:58+02:00</time>
      </trkpt>
      <trkpt lat="47.83497" lon="6.64475">
        <ele>597</ele>
        <time>2021-10-10T12:46:15+02:00</time>
      </trkpt>
      <trkpt lat="47.83478" lon="6.64495">
        <ele>596</ele>
        <time>2021-10-10T12:46:34+02:00</time>
      </trkpt>
      <trkpt lat="47.83462" lon="6.64521">
        <ele>596</ele>
        <time>2021-10-10T12:46:52+02:00</time>
      </trkpt>
      <trkpt lat="47.83447" lon="6.64546">
        <ele>596</ele>
        <time>2021-10-10T12:47:09+02:00</time>
      </trkpt>
      <trkpt lat="47.83432" lon="6.64572">
        <ele>594</ele>
        <time>2021-10-10T12:47:25+02:00</time>
      </trkpt>
      <trkpt lat="47.83436" lon="6.64606">
        <ele>594</ele>
        <time>2021-10-10T12:47:43+02:00</time>
      </trkpt>
      <trkpt lat="47.83443" lon="6.64639">
        <ele>594</ele>
        <time>2021-10-10T12:47:59+02:00</time>
      </trkpt>
      <trkpt lat="47.83447" lon="6.64672">
        <ele>594</ele>
        <time>2021-10-10T12:48:21+02:00</time>
      </trkpt>
      <trkpt lat="47.83434" lon="6.64701">
        <ele>595</ele>
        <time>2021-10-10T12:48:46+02:00</time>
      </trkpt>
      <trkpt lat="47.83419" lon="6.64727">
        <ele>596</ele>
        <time>2021-10-10T12:49:05+02:00</time>
      </trkpt>
      <trkpt lat="47.83404" lon="6.64752">
        <ele>595</ele>
        <time>2021-10-10T12:49:28+02:00</time>
      </trkpt>
      <trkpt lat="47.83391" lon="6.64781">
        <ele>594</ele>
        <time>2021-10-10T12:49:48+02:00</time>
      </trkpt>
      <trkpt lat="47.83383" lon="6.64815">
        <ele>593</ele>
        <time>2021-10-10T12:50:04+02:00</time>
      </trkpt>
      <trkpt lat="47.83374" lon="6.64846">
        <ele>593</ele>
        <time>2021-10-10T12:50:18+02:00</time>
      </trkpt>
      <trkpt lat="47.83363" lon="6.64875">
        <ele>592</ele>
        <time>2021-10-10T12:50:31+02:00</time>
      </trkpt>
      <trkpt lat="47.83359" lon="6.64909">
        <ele>592</ele>
        <time>2021-10-10T12:50:50+02:00</time>
      </trkpt>
      <trkpt lat="47.83345" lon="6.64937">
        <ele>591</ele>
        <time>2021-10-10T12:51:13+02:00</time>
      </trkpt>
      <trkpt lat="47.83325" lon="6.64956">
        <ele>590</ele>
        <time>2021-10-10T12:51:29+02:00</time>
      </trkpt>
      <trkpt lat="47.83307" lon="6.64976">
        <ele>590</ele>
        <time>2021-10-10T12:51:47+02:00</time>
      </trkpt>
      <trkpt lat="47.83289" lon="6.64997">
        <ele>590</ele>
        <time>2021-10-10T12:52:06+02:00</time>
      </trkpt>
      <trkpt lat="47.83276" lon="6.65024">
        <ele>591</ele>
        <time>2021-10-10T12:52:23+02:00</time>
      </trkpt>
      <trkpt lat="47.8326" lon="6.6505">
        <ele>592</ele>
        <time>2021-10-10T12:52:41+02:00</time>
      </trkpt>
      <trkpt lat="47.83247" lon="6.65079">
        <ele>592</ele>
        <time>2021-10-10T12:53:01+02:00</time>
      </trkpt>
      <trkpt lat="47.83227" lon="6.65095">
        <ele>594</ele>
        <time>2021-10-10T12:53:22+02:00</time>
      </trkpt>
      <trkpt lat="47.83216" lon="6.65127">
        <ele>596</ele>
        <time>2021-10-10T12:53:47+02:00</time>
      </trkpt>
      <trkpt lat="47.83204" lon="6.65155">
        <ele>597</ele>
        <time>2021-10-10T12:54:06+02:00</time>
      </trkpt>
      <trkpt lat="47.8319" lon="6.65182">
        <ele>598</ele>
        <time>2021-10-10T12:54:28+02:00</time>
      </trkpt>
      <trkpt lat="47.83181" lon="6.65213">
        <ele>599</ele>
        <time>2021-10-10T12:54:39+02:00</time>
      </trkpt>
      <trkpt lat="47.83171" lon="6.65244">
        <ele>600</ele>
        <time>2021-10-10T12:54:53+02:00</time>
      </trkpt>
      <trkpt lat="47.8316" lon="6.65276">
        <ele>601</ele>
        <time>2021-10-10T12:55:12+02:00</time>
      </trkpt>
      <trkpt lat="47.8315" lon="6.65308">
        <ele>601</ele>
        <time>2021-10-10T12:55:32+02:00</time>
      </trkpt>
      <trkpt lat="47.83144" lon="6.65341">
        <ele>601</ele>
        <time>2021-10-10T12:55:51+02:00</time>
      </trkpt>
      <trkpt lat="47.83145" lon="6.65375">
        <ele>601</ele>
        <time>2021-10-10T12:56:11+02:00</time>
      </trkpt>
      <trkpt lat="47.83146" lon="6.6541">
        <ele>601</ele>
        <time>2021-10-10T12:56:29+02:00</time>
      </trkpt>
      <trkpt lat="47.83135" lon="6.6544">
        <ele>601</ele>
        <time>2021-10-10T12:56:48+02:00</time>
      </trkpt>
      <trkpt lat="47.83122" lon="6.65468">
        <ele>601</ele>
        <time>2021-10-10T12:57:15+02:00</time>
      </trkpt>
      <trkpt lat="47.83112" lon="6.65498">
        <ele>601</ele>
        <time>2021-10-10T12:57:32+02:00</time>
      </trkpt>
      <trkpt lat="47.83102" lon="6.65529">
        <ele>600</ele>
        <time>2021-10-10T12:57:56+02:00</time>
      </trkpt>
      <trkpt lat="47.8309" lon="6.65558">
        <ele>601</ele>
        <time>2021-10-10T12:58:13+02:00</time>
      </trkpt>
      <trkpt lat="47.83083" lon="6.6559">
        <ele>601</ele>
        <time>2021-10-10T12:58:30+02:00</time>
      </trkpt>
      <trkpt lat="47.83081" lon="6.65625">
        <ele>602</ele>
        <time>2021-10-10T12:58:45+02:00</time>
      </trkpt>
      <trkpt lat="47.83088" lon="6.65659">
        <ele>603</ele>
        <time>2021-10-10T12:59:05+02:00</time>
      </trkpt>
      <trkpt lat="47.83095" lon="6.65692">
        <ele>604</ele>
        <time>2021-10-10T12:59:22+02:00</time>
      </trkpt>
      <trkpt lat="47.83094" lon="6.65725">
        <ele>605</ele>
        <time>2021-10-10T12:59:41+02:00</time>
      </trkpt>
      <trkpt lat="47.83084" lon="6.65757">
        <ele>604</ele>
        <time>2021-10-10T13:00:01+02:00</time>
      </trkpt>
      <trkpt lat="47.83069" lon="6.65783">
        <ele>602</ele>
        <time>2021-10-10T13:00:17+02:00</time>
      </trkpt>
      <trkpt lat="47.83059" lon="6.65813">
        <ele>602</ele>
        <time>2021-10-10T13:00:35+02:00</time>
      </trkpt>
      <trkpt lat="47.83057" lon="6.65848">
        <ele>603</ele>
        <time>2021-10-10T13:00:54+02:00</time>
      </trkpt>
      <trkpt lat="47.83057" lon="6.65882">
        <ele>604</ele>
        <time>2021-10-10T13:01:14+02:00</time>
      </trkpt>
      <trkpt lat="47.83055" lon="6.65916">
        <ele>605</ele>
        <time>2021-10-10T13:01:33+02:00</time>
      </trkpt>
      <trkpt lat="47.83055" lon="6.6595">
        <ele>607</ele>
        <time>2021-10-10T13:01:50+02:00</time>
      </trkpt>
      <trkpt lat="47.83062" lon="6.65981">
        <ele>610</ele>
        <time>2021-10-10T13:02:09+02:00</time>
      </trkpt>
      <trkpt lat="47.83066" lon="6.66014">
        <ele>612</ele>
        <time>2021-10-10T13:02:27+02:00</time>
      </trkpt>
      <trkpt lat="47.83071" lon="6.66048">
        <ele>615</ele>
        <time>2021-10-10T13:02:47+02:00</time>
      </trkpt>
      <trkpt lat="47.83073" lon="6.66084">
        <ele>616</ele>
        <time>2021-10-10T13:03:09+02:00</time>
      </trkpt>
      <trkpt lat="47.83076" lon="6.66119">
        <ele>618</ele>
        <time>2021-10-10T13:03:27+02:00</time>
      </trkpt>
      <trkpt lat="47.83083" lon="6.66151">
        <ele>619</ele>
        <time>2021-10-10T13:03:47+02:00</time>
      </trkpt>
      <trkpt lat="47.83091" lon="6.66183">
        <ele>620</ele>
        <time>2021-10-10T13:04:07+02:00</time>
      </trkpt>
      <trkpt lat="47.83114" lon="6.66188">
        <ele>621</ele>
        <time>2021-10-10T13:04:26+02:00</time>
      </trkpt>
      <trkpt lat="47.83137" lon="6.66179">
        <ele>621</ele>
        <time>2021-10-10T13:04:42+02:00</time>
      </trkpt>
      <trkpt lat="47.83156" lon="6.6616">
        <ele>621</ele>
        <time>2021-10-10T13:04:57+02:00</time>
      </trkpt>
      <trkpt lat="47.83167" lon="6.6613">
        <ele>621</ele>
        <time>2021-10-10T13:05:16+02:00</time>
      </trkpt>
      <trkpt lat="47.83184" lon="6.66104">
        <ele>621</ele>
        <time>2021-10-10T13:05:32+02:00</time>
      </trkpt>
      <trkpt lat="47.83206" lon="6.66094">
        <ele>621</ele>
        <time>2021-10-10T13:06:27+02:00</time>
      </trkpt>
      <trkpt lat="47.83229" lon="6.66099">
        <ele>621</ele>
        <time>2021-10-10T13:06:46+02:00</time>
      </trkpt>
      <trkpt lat="47.83247" lon="6.66119">
        <ele>621</ele>
        <time>2021-10-10T13:07:04+02:00</time>
      </trkpt>
      <trkpt lat="47.83264" lon="6.66142">
        <ele>621</ele>
        <time>2021-10-10T13:08:09+02:00</time>
      </trkpt>
      <trkpt lat="47.83262" lon="6.66175">
        <ele>621</ele>
        <time>2021-10-10T13:08:29+02:00</time>
      </trkpt>
      <trkpt lat="47.83265" lon="6.6621">
        <ele>621</ele>
        <time>2021-10-10T13:08:49+02:00</time>
      </trkpt>
      <trkpt lat="47.83285" lon="6.66228">
        <ele>622</ele>
        <time>2021-10-10T13:09:10+02:00</time>
      </trkpt>
      <trkpt lat="47.83308" lon="6.66216">
        <ele>621</ele>
        <time>2021-10-10T13:09:27+02:00</time>
      </trkpt>
      <trkpt lat="47.83331" lon="6.66213">
        <ele>621</ele>
        <time>2021-10-10T13:09:46+02:00</time>
      </trkpt>
      <trkpt lat="47.83346" lon="6.66239">
        <ele>621</ele>
        <time>2021-10-10T13:10:10+02:00</time>
      </trkpt>
      <trkpt lat="47.83364" lon="6.6626">
        <ele>620</ele>
        <time>2021-10-10T13:10:25+02:00</time>
      </trkpt>
      <trkpt lat="47.83375" lon="6.66289">
        <ele>620</ele>
        <time>2021-10-10T13:10:45+02:00</time>
      </trkpt>
      <trkpt lat="47.8338" lon="6.66323">
        <ele>620</ele>
        <time>2021-10-10T13:11:08+02:00</time>
      </trkpt>
      <trkpt lat="47.8338" lon="6.66357">
        <ele>620</ele>
        <time>2021-10-10T13:11:27+02:00</time>
      </trkpt>
      <trkpt lat="47.83385" lon="6.66392">
        <ele>620</ele>
        <time>2021-10-10T13:11:43+02:00</time>
      </trkpt>
      <trkpt lat="47.83381" lon="6.66425">
        <ele>621</ele>
        <time>2021-10-10T13:12:00+02:00</time>
      </trkpt>
      <trkpt lat="47.83385" lon="6.66458">
        <ele>620</ele>
        <time>2021-10-10T13:12:15+02:00</time>
      </trkpt>
      <trkpt lat="47.83392" lon="6.66491">
        <ele>619</ele>
        <time>2021-10-10T13:12:31+02:00</time>
      </trkpt>
      <trkpt lat="47.834" lon="6.66525">
        <ele>617</ele>
        <time>2021-10-10T13:12:52+02:00</time>
      </trkpt>
      <trkpt lat="47.834" lon="6.66558">
        <ele>617</ele>
        <time>2021-10-10T13:13:08+02:00</time>
      </trkpt>
      <trkpt lat="47.83413" lon="6.66588">
        <ele>616</ele>
        <time>2021-10-10T13:13:25+02:00</time>
      </trkpt>
      <trkpt lat="47.83413" lon="6.66622">
        <ele>615</ele>
        <time>2021-10-10T13:13:41+02:00</time>
      </trkpt>
      <trkpt lat="47.83433" lon="6.6664">
        <ele>615</ele>
        <time>2021-10-10T13:14:01+02:00</time>
      </trkpt>
      <trkpt lat="47.83451" lon="6.6666">
        <ele>615</ele>
        <time>2021-10-10T13:14:50+02:00</time>
      </trkpt>
      <trkpt lat="47.83473" lon="6.66675">
        <ele>615</ele>
        <time>2021-10-10T13:15:09+02:00</time>
      </trkpt>
      <trkpt lat="47.83494" lon="6.66688">
        <ele>616</ele>
        <time>2021-10-10T13:15:26+02:00</time>
      </trkpt>
      <trkpt lat="47.83517" lon="6.66685">
        <ele>619</ele>
        <time>2021-10-10T13:15:45+02:00</time>
      </trkpt>
      <trkpt lat="47.83537" lon="6.66665">
        <ele>620</ele>
        <time>2021-10-10T13:16:05+02:00</time>
      </trkpt>
      <trkpt lat="47.83555" lon="6.66645">
        <ele>622</ele>
        <time>2021-10-10T13:16:26+02:00</time>
      </trkpt>
      <trkpt lat="47.83568" lon="6.66616">
        <ele>623</ele>
        <time>2021-10-10T13:16:46+02:00</time>
      </trkpt>
      <trkpt lat="47.83588" lon="6.66597">
        <ele>624</ele>
        <time>2021-10-10T13:17:04+02:00</time>
      </trkpt>
      <trkpt lat="47.83609" lon="6.66608">
        <ele>627</ele>
        <time>2021-10-10T13:17:27+02:00</time>
      </trkpt>
      <trkpt lat="47.83625" lon="6.66632">
        <ele>630</ele>
        <time>2021-10-10T13:17:48+02:00</time>
      </trkpt>
      <trkpt lat="47.83618" lon="6.66665">
        <ele>631</ele>
        <time>2021-10-10T13:18:10+02:00</time>
      </trkpt>
      <trkpt lat="47.83614" lon="6.667">
        <ele>632</ele>
        <time>2021-10-10T13:18:31+02:00</time>
      </trkpt>
      <trkpt lat="47.83611" lon="6.66735">
        <ele>632</ele>
        <time>2021-10-10T13:18:48+02:00</time>
      </trkpt>
      <trkpt lat="47.83606" lon="6.66769">
        <ele>632</ele>
        <time>2021-10-10T13:19:04+02:00</time>
      </trkpt>
      <trkpt lat="47.83613" lon="6.66801">
        <ele>631</ele>
        <time>2021-10-10T13:19:22+02:00</time>
      </trkpt>
      <trkpt lat="47.83629" lon="6.66825">
        <ele>631</ele>
        <time>2021-10-10T13:19:41+02:00</time>
      </trkpt>
      <trkpt lat="47.83641" lon="6.66854">
        <ele>631</ele>
        <time>2021-10-10T13:20:01+02:00</time>
      </trkpt>
      <trkpt lat="47.83664" lon="6.66857">
        <ele>631</ele>
        <time>2021-10-10T13:20:17+02:00</time>
      </trkpt>
      <trkpt lat="47.83687" lon="6.66852">
        <ele>632</ele>
        <time>2021-10-10T13:20:35+02:00</time>
      </trkpt>
      <trkpt lat="47.83707" lon="6.66836">
        <ele>632</ele>
        <time>2021-10-10T13:20:52+02:00</time>
      </trkpt>
      <trkpt lat="47.83717" lon="6.66804">
        <ele>634</ele>
        <time>2021-10-10T13:21:07+02:00</time>
      </trkpt>
      <trkpt lat="47.83726" lon="6.66772">
        <ele>634</ele>
        <time>2021-10-10T13:21:24+02:00</time>
      </trkpt>
      <trkpt lat="47.83739" lon="6.66744">
        <ele>635</ele>
        <time>2021-10-10T13:21:44+02:00</time>
      </trkpt>
      <trkpt lat="47.83759" lon="6.66728">
        <ele>638</ele>
        <time>2021-10-10T13:22:06+02:00</time>
      </trkpt>
      <trkpt lat="47.83782" lon="6.66719">
        <ele>641</ele>
        <time>2021-10-10T13:22:28+02:00</time>
      </trkpt>
      <trkpt lat="47.83804" lon="6.66712">
        <ele>642</ele>
        <time>2021-10-10T13:22:45+02:00</time>
      </trkpt>
    </trkseg>
  </trk>
</gpx>